Wawa, Canada
Current Conditions -  °F | °C
As of 8:00 AM on Thursday 27 Nov 2014 (Local Time) from CYXZ Reporting Station
Broken Clouds Broken Clouds  
Wind Chill: -17°   Ceiling: 2000
Heat Index:   Visibility: 15mi
Dew Point: -8°   Wind: 10mph
Humidity: 72%   Direction: 20°NNE
Pressure: 30.21"   Gusts: 20mph
Location:  48°N, 84.82°W
Report Text: CYXZ 271300Z 02009G17KT 15SM BKN020 M18/M22 A3021 RMK SC6 SLP257
Loading
Personal Weather Stations






























Interactive Weather Map New forecast layout! Learn more

10-Day Weather Forecast

Advertisements
Track Severe Weather on mobile